createdAt,value
2022-08-03T03:25:33.792Z,1.83
2022-08-03T03:28:06.469Z,2.42
2022-08-03T03:36:08.487Z,2.60
2022-08-03T03:38:37.293Z,1.95
2022-08-03T03:41:04.912Z,2.30
2022-08-03T03:43:31.971Z,2.15
2022-08-03T03:46:01.150Z,2.30
2022-08-03T03:48:28.053Z,1.67
2022-08-03T03:51:02.275Z,1.95
2022-08-03T03:53:28.965Z,2.22
2022-08-03T03:55:59.373Z,1.77
2022-08-03T03:58:31.141Z,1.65
2022-08-03T04:00:57.805Z,1.85
2022-08-03T04:03:24.374Z,1.70
2022-08-03T04:06:12.089Z,1.77
2022-08-03T04:08:58.075Z,2.15
2022-08-03T04:11:30.401Z,1.85
2022-08-03T04:14:23.522Z,2.00
2022-08-03T04:16:54.811Z,1.73
2022-08-03T04:19:46.826Z,2.00
2022-08-03T04:22:19.468Z,1.80
2022-08-03T04:24:55.858Z,2.05
2022-08-03T04:27:28.184Z,1.98
2022-08-03T04:29:57.001Z,2.78
2022-08-03T04:32:28.574Z,1.85
2022-08-03T04:34:55.323Z,2.40
2022-08-03T04:37:43.106Z,2.00
2022-08-03T04:40:15.941Z,1.70
2022-08-03T04:42:45.679Z,2.53
2022-08-03T04:45:14.820Z,2.22
2022-08-03T04:47:42.161Z,2.35
2022-08-03T04:50:13.496Z,2.17
2022-08-03T04:53:03.869Z,2.10
2022-08-03T04:55:36.534Z,2.35
2022-08-03T04:58:09.532Z,2.35
2022-08-03T05:00:38.350Z,1.92
2022-08-03T05:03:04.905Z,2.13
2022-08-03T05:05:51.027Z,2.40
2022-08-03T05:08:20.707Z,2.00
2022-08-03T05:10:54.615Z,2.15
2022-08-03T05:13:23.549Z,2.83
2022-08-03T05:15:52.530Z,1.88
2022-08-03T05:18:19.077Z,1.98
2022-08-03T05:20:48.148Z,2.45
2022-08-03T05:23:17.313Z,2.30
2022-08-03T05:25:49.807Z,2.17
2022-08-03T05:28:19.445Z,2.67
2022-08-03T05:30:48.314Z,2.85
2022-08-03T05:33:14.874Z,2.55
2022-08-03T05:35:57.322Z,2.50
2022-08-03T05:38:34.759Z,2.10
2022-08-03T05:41:22.442Z,2.03
2022-08-03T05:43:52.361Z,2.30
2022-08-03T05:46:22.217Z,2.67
2022-08-03T05:48:48.745Z,1.92
2022-08-03T05:51:15.360Z,2.80
2022-08-03T05:53:46.173Z,2.55
2022-08-03T05:56:14.310Z,2.47
2022-08-03T05:58:46.444Z,2.47
2022-08-03T06:01:13.683Z,3.20
2022-08-03T06:03:40.304Z,2.20
2022-08-03T06:06:06.887Z,1.98
2022-08-03T06:08:34.593Z,2.40
2022-08-03T06:11:01.124Z,1.80
2022-08-03T06:13:27.727Z,2.35
2022-08-03T06:15:54.330Z,2.50
2022-08-03T06:18:24.591Z,2.03
2022-08-03T06:20:54.248Z,1.90
2022-08-03T06:23:22.441Z,2.45
2022-08-03T06:25:49.360Z,2.55
2022-08-03T06:28:42.581Z,2.55
2022-08-03T06:31:06.947Z,2.28
2022-08-03T06:34:30.721Z,1.80
2022-08-03T06:36:22.264Z,1.85
2022-08-03T06:38:48.817Z,2.05
2022-08-03T06:41:17.687Z,2.30
2022-08-03T06:44:03.364Z,2.13
2022-08-03T06:46:33.007Z,2.05
2022-08-03T06:48:59.546Z,1.85
2022-08-03T06:52:06.088Z,2.15
2022-08-03T06:54:24.273Z,1.92
2022-08-03T06:56:53.667Z,2.53
2022-08-03T07:00:08.708Z,1.58
2022-08-03T07:02:07.433Z,2.28
2022-08-03T07:04:33.953Z,3.28
2022-08-03T07:07:02.551Z,1.55
2022-08-03T07:09:29.157Z,2.72
2022-08-03T07:11:57.012Z,1.77
2022-08-03T07:14:23.540Z,2.47
2022-08-03T07:16:50.033Z,2.90
2022-08-03T07:19:16.910Z,1.85
2022-08-03T07:21:45.876Z,1.90
2022-08-03T07:24:17.222Z,1.40
2022-08-03T07:26:43.744Z,1.20
2022-08-03T07:29:15.165Z,1.30
2022-08-03T07:31:42.169Z,1.65
2022-08-03T07:34:08.700Z,1.40
2022-08-03T07:36:35.197Z,1.10
2022-08-03T07:39:01.720Z,0.90
2022-08-03T07:41:44.213Z,2.78
2022-08-03T07:44:10.725Z,1.60
2022-08-03T07:46:39.526Z,1.80
2022-08-03T07:49:08.814Z,1.60
2022-08-03T07:51:35.556Z,1.90
2022-08-03T07:54:07.650Z,2.05
2022-08-03T07:56:34.199Z,1.20
2022-08-03T07:59:01.994Z,2.05
2022-08-03T08:01:32.728Z,1.20
2022-08-03T08:03:59.401Z,1.40
2022-08-03T08:06:28.048Z,1.27
2022-08-03T08:08:55.126Z,1.30
2022-08-03T08:11:22.409Z,2.08
2022-08-03T08:13:51.192Z,1.15
2022-08-03T08:16:17.711Z,1.08
2022-08-03T08:18:44.194Z,1.40
2022-08-03T08:21:13.111Z,1.30
2022-08-03T08:23:43.829Z,1.75
2022-08-03T08:26:15.184Z,1.77
2022-08-03T08:28:41.668Z,1.63
2022-08-03T08:31:08.489Z,1.30
2022-08-03T08:34:02.223Z,1.60
2022-08-03T08:36:25.911Z,1.27
2022-08-03T08:38:52.492Z,1.90
2022-08-03T08:41:19.344Z,1.63
2022-08-03T08:43:46.060Z,1.33
2022-08-03T08:46:22.824Z,2.53
2022-08-03T08:48:54.121Z,1.17
2022-08-03T08:51:22.563Z,1.77
2022-08-03T08:53:53.720Z,1.23
2022-08-03T08:56:25.964Z,1.85
2022-08-03T08:58:57.945Z,1.73
2022-08-03T09:01:25.265Z,1.95
2022-08-03T09:03:55.099Z,1.40
2022-08-03T09:06:25.144Z,1.45
2022-08-03T09:08:51.680Z,1.38
2022-08-03T09:11:51.545Z,0.85
2022-08-03T09:14:10.367Z,1.77
2022-08-03T09:17:06.888Z,2.13
2022-08-03T09:19:38.195Z,1.90
2022-08-03T09:22:25.736Z,1.33
2022-08-03T09:27:49.442Z,1.60
2022-08-03T09:30:33.483Z,1.17
2022-08-03T09:33:08.135Z,1.30
2022-08-03T09:35:53.507Z,1.40
2022-08-03T09:38:26.141Z,1.02
2022-08-03T09:40:59.212Z,1.10
2022-08-03T09:43:27.610Z,1.40
2022-08-03T09:46:05.341Z,0.70
2022-08-03T09:48:34.936Z,0.90
2022-08-03T09:51:13.086Z,1.33
2022-08-03T09:53:58.867Z,1.00
2022-08-03T09:56:39.072Z,1.77
2022-08-03T09:59:10.334Z,0.70
2022-08-03T10:01:41.510Z,0.90
2022-08-03T10:04:16.894Z,1.05
2022-08-03T10:06:45.252Z,3.65
2022-08-03T10:09:16.753Z,1.00
2022-08-03T10:11:44.703Z,0.95
2022-08-03T10:14:19.456Z,1.20
2022-08-03T10:16:50.029Z,0.60
2022-08-03T10:19:17.127Z,1.38
2022-08-03T10:21:56.682Z,0.80
2022-08-03T10:24:27.228Z,0.70
2022-08-03T10:27:03.672Z,1.23
2022-08-03T10:29:37.105Z,0.75
2022-08-03T10:32:06.051Z,0.45
2022-08-03T10:34:44.265Z,0.80
2022-08-03T10:37:18.263Z,0.80
2022-08-03T10:39:54.562Z,0.50
2022-08-03T10:42:24.283Z,0.70
2022-08-03T10:45:09.689Z,0.57
2022-08-03T10:47:36.781Z,0.88
2022-08-03T10:50:09.378Z,0.52
2022-08-03T10:52:41.036Z,0.63
2022-08-03T10:55:50.405Z,0.77
2022-08-03T10:58:37.039Z,0.65
2022-08-03T11:01:13.691Z,0.80
2022-08-03T11:03:54.384Z,0.57
2022-08-03T11:06:24.724Z,0.70
2022-08-03T11:09:11.187Z,0.80
2022-08-03T11:11:41.860Z,0.60
2022-08-03T11:14:13.143Z,0.80
2022-08-03T11:16:42.837Z,0.75
2022-08-03T11:19:16.550Z,0.80
2022-08-03T11:24:36.788Z,0.73
2022-08-03T11:27:21.639Z,0.98
2022-08-03T11:30:09.875Z,0.70
2022-08-03T11:32:46.778Z,0.70
2022-08-03T11:35:26.259Z,0.32
2022-08-03T11:38:04.314Z,0.70
2022-08-03T11:40:52.581Z,0.60
2022-08-03T11:43:22.235Z,0.75
2022-08-03T11:45:59.582Z,0.38
2022-08-03T11:48:49.656Z,0.60
2022-08-03T11:51:26.239Z,0.85
2022-08-03T11:54:01.414Z,1.02
2022-08-03T11:56:29.563Z,1.08
2022-08-03T11:59:20.122Z,1.23
2022-08-03T12:01:46.669Z,0.90
2022-08-03T12:04:13.258Z,0.70
2022-08-03T12:06:55.174Z,1.02
2022-08-03T12:09:24.081Z,0.70
2022-08-03T12:12:00.531Z,0.52
2022-08-03T12:14:49.236Z,0.25
2022-08-03T12:17:16.561Z,0.50
2022-08-03T12:19:43.667Z,0.90
2022-08-03T12:22:13.503Z,0.80
2022-08-03T12:24:41.929Z,0.77
2022-08-03T12:27:08.578Z,0.70
2022-08-03T12:29:35.307Z,0.82
2022-08-03T12:32:02.257Z,0.85
2022-08-03T12:34:50.855Z,1.00
2022-08-03T12:37:29.009Z,0.55
2022-08-03T12:40:07.727Z,1.20
2022-08-03T12:42:38.495Z,0.80
2022-08-03T12:45:27.158Z,0.70
2022-08-03T12:47:58.194Z,1.20
2022-08-03T12:50:35.098Z,0.65
2022-08-03T12:53:08.042Z,0.70
2022-08-03T12:56:05.382Z,0.65
2022-08-03T12:58:35.375Z,0.90
2022-08-03T13:01:05.095Z,1.50
2022-08-03T13:03:54.987Z,1.95
2022-08-03T13:06:24.419Z,0.75
2022-08-03T13:09:04.211Z,1.42
2022-08-03T13:14:19.979Z,0.73
2022-08-03T13:16:50.514Z,1.05
2022-08-03T13:19:17.111Z,0.73
2022-08-03T13:21:53.864Z,0.70
2022-08-03T13:24:32.139Z,0.85
2022-08-03T13:28:00.948Z,0.82
2022-08-03T13:29:54.037Z,0.50
2022-08-03T13:32:21.544Z,0.77
2022-08-03T13:34:50.351Z,1.08
2022-08-03T13:37:16.939Z,1.00
2022-08-03T13:39:57.545Z,1.00
2022-08-03T13:42:33.757Z,0.73
2022-08-03T13:45:01.625Z,0.80
2022-08-03T13:47:49.531Z,0.57
2022-08-03T13:50:16.457Z,0.60
2022-08-03T13:52:42.988Z,0.30
2022-08-03T13:55:09.896Z,0.63
2022-08-03T13:58:03.677Z,0.80
2022-08-03T14:00:29.017Z,1.00
2022-08-03T14:03:13.223Z,0.70
2022-08-03T14:05:41.879Z,0.52
2022-08-03T14:08:08.485Z,0.60
2022-08-03T14:10:40.399Z,0.77
2022-08-03T14:13:07.779Z,0.85
2022-08-03T14:15:37.514Z,1.10
2022-08-03T14:18:12.760Z,0.75
2022-08-03T14:20:48.973Z,0.52
2022-08-03T14:23:18.642Z,0.75
2022-08-03T14:25:52.354Z,0.65
2022-08-03T14:28:24.834Z,0.65
2022-08-03T14:33:23.143Z,0.45
2022-08-03T14:35:52.411Z,0.85
2022-08-03T14:38:19.150Z,0.73
2022-08-03T14:40:48.932Z,0.70
2022-08-03T14:43:21.125Z,0.65
2022-08-03T14:45:52.027Z,0.73
2022-08-03T14:50:28.573Z,0.50
2022-08-03T14:51:10.097Z,0.38
2022-08-03T14:53:38.672Z,0.57
2022-08-03T14:56:10.218Z,0.60
2022-08-03T14:58:37.312Z,0.98
2022-08-03T15:01:04.105Z,1.00
2022-08-03T15:03:52.846Z,1.42
2022-08-03T15:06:19.509Z,0.88
2022-08-03T15:09:12.412Z,0.80
2022-08-03T15:11:39.975Z,0.83
2022-08-03T15:14:09.296Z,0.60
2022-08-03T15:16:36.476Z,0.75
2022-08-03T15:19:03.104Z,1.10
2022-08-03T15:21:52.684Z,0.85
2022-08-03T15:24:19.856Z,0.63
2022-08-03T15:26:46.695Z,0.63
2022-08-03T15:30:08.772Z,0.90
2022-08-03T15:32:06.125Z,0.88
2022-08-03T15:34:35.652Z,0.38
2022-08-03T15:37:02.150Z,0.80
2022-08-03T15:39:28.787Z,0.75
2022-08-03T15:41:57.625Z,0.50
2022-08-03T15:44:26.785Z,0.50
2022-08-03T15:46:53.849Z,0.82
2022-08-03T15:49:20.661Z,0.57
2022-08-03T15:51:47.903Z,1.17
2022-08-03T15:54:14.539Z,1.08
2022-08-03T15:56:45.301Z,0.60
2022-08-03T15:59:15.227Z,0.30
2022-08-03T16:01:42.426Z,0.82
2022-08-03T16:04:09.342Z,0.63
2022-08-03T16:06:36.614Z,0.75
2022-08-03T16:09:23.727Z,0.75
2022-08-03T16:11:54.893Z,0.60
2022-08-03T16:14:34.424Z,0.88
2022-08-03T16:17:06.957Z,0.50
2022-08-03T16:19:35.825Z,0.70
2022-08-03T16:22:02.369Z,0.70
2022-08-03T16:24:29.939Z,0.43
2022-08-03T16:27:00.754Z,0.43
2022-08-03T16:29:29.990Z,0.93
2022-08-03T16:31:56.566Z,0.88
2022-08-03T16:34:28.536Z,0.70
2022-08-03T16:36:57.488Z,0.65
2022-08-03T16:39:24.094Z,1.20
2022-08-03T16:41:53.622Z,0.60
2022-08-03T16:44:29.600Z,0.70
2022-08-03T16:46:56.377Z,0.50
2022-08-03T16:49:54.012Z,0.98
2022-08-03T16:52:12.868Z,1.23
2022-08-03T16:54:39.866Z,1.17
2022-08-03T16:57:11.881Z,0.80
2022-08-03T16:59:38.532Z,0.57
2022-08-03T17:02:10.445Z,0.80
2022-08-03T17:04:40.347Z,0.65
2022-08-03T17:07:07.676Z,0.80
2022-08-03T17:09:40.320Z,0.63
2022-08-03T17:12:07.545Z,0.65
2022-08-03T17:14:40.611Z,0.75
2022-08-03T17:17:21.056Z,0.98
2022-08-03T17:19:48.716Z,0.80
2022-08-03T17:22:26.950Z,1.42
2022-08-03T17:24:54.871Z,0.85
2022-08-03T17:28:49.564Z,0.68
2022-08-03T17:30:22.148Z,0.77
2022-08-03T17:32:57.580Z,0.60
2022-08-03T17:35:34.376Z,0.60
2022-08-03T17:38:11.970Z,0.93
2022-08-03T17:40:48.079Z,0.88
2022-08-03T17:44:13.808Z,1.25
2022-08-03T17:46:10.688Z,1.55
2022-08-03T17:48:41.201Z,1.00
2022-08-03T17:51:17.300Z,1.92
2022-08-03T17:53:53.246Z,0.88
2022-08-03T17:56:45.047Z,0.70
2022-08-03T17:59:52.181Z,1.10
2022-08-03T18:03:03.338Z,0.82
2022-08-03T18:06:11.195Z,0.82
2022-08-03T18:08:32.367Z,0.90
2022-08-03T18:11:14.916Z,0.73
2022-08-03T18:13:57.631Z,1.52
2022-08-03T18:16:35.652Z,0.57
2022-08-03T18:19:09.304Z,0.70
2022-08-03T18:22:03.151Z,0.55
2022-08-03T18:24:32.286Z,0.77
2022-08-03T18:27:04.027Z,0.85
2022-08-03T18:29:35.433Z,0.65
2022-08-03T18:32:06.065Z,1.10
2022-08-03T18:34:53.853Z,0.80
2022-08-03T18:37:25.193Z,0.90
2022-08-03T18:39:55.454Z,0.88
2022-08-03T18:42:27.234Z,0.75
2022-08-03T18:44:55.947Z,0.50
2022-08-03T18:47:52.048Z,1.42
2022-08-03T18:50:19.670Z,0.90
2022-08-03T18:53:15.743Z,1.30
2022-08-03T18:56:02.146Z,0.90
2022-08-03T18:58:38.804Z,0.85
2022-08-03T19:01:59.929Z,1.48
2022-08-03T19:04:08.818Z,1.23
2022-08-03T19:06:53.798Z,0.80
2022-08-03T19:09:48.134Z,1.23
2022-08-03T19:12:32.396Z,0.90
2022-08-03T19:15:06.225Z,1.20
2022-08-03T19:17:43.445Z,1.30
2022-08-03T19:20:30.670Z,1.17
2022-08-03T19:22:59.361Z,1.48
2022-08-03T19:25:35.396Z,1.08
2022-08-03T19:28:07.407Z,1.35
2022-08-03T19:30:39.734Z,1.17
2022-08-03T19:33:16.516Z,0.88
2022-08-03T19:35:55.215Z,1.13
2022-08-03T19:38:28.285Z,1.40
2022-08-03T19:43:53.358Z,1.17
2022-08-03T19:46:30.151Z,1.50
2022-08-03T19:49:15.360Z,1.40
2022-08-03T19:52:01.194Z,1.35
2022-08-03T19:54:45.483Z,1.58
2022-08-03T19:57:27.603Z,1.40
2022-08-03T19:59:56.069Z,1.60
2022-08-03T20:02:26.189Z,1.60
2022-08-03T20:05:00.061Z,1.67
2022-08-03T20:07:28.915Z,1.08
2022-08-03T20:12:49.729Z,1.90
2022-08-03T20:15:30.930Z,1.20
2022-08-03T20:18:00.290Z,1.33
2022-08-03T20:20:37.257Z,1.20
2022-08-03T20:23:15.210Z,1.90
2022-08-03T20:25:57.130Z,2.00
2022-08-03T20:28:49.713Z,1.83
2022-08-03T20:31:19.010Z,1.52
2022-08-03T20:33:48.679Z,1.30
2022-08-03T20:36:17.826Z,1.60
2022-08-03T20:38:47.298Z,1.50
2022-08-03T20:41:15.923Z,1.23
2022-08-03T20:43:46.051Z,1.45
2022-08-03T20:46:29.242Z,1.33
2022-08-03T20:49:01.228Z,1.05
2022-08-03T20:51:50.721Z,1.90
2022-08-03T20:54:29.373Z,1.33
2022-08-03T20:56:58.407Z,1.65
2022-08-03T20:59:38.471Z,1.25
2022-08-03T21:02:19.774Z,0.63
2022-08-03T21:05:14.495Z,2.53
2022-08-03T21:08:06.948Z,1.40
2022-08-03T21:10:58.119Z,1.38
2022-08-03T21:13:11.060Z,1.70
2022-08-03T21:14:07.799Z,1.35
2022-08-03T21:16:58.316Z,1.75
2022-08-03T21:19:51.729Z,1.50
2022-08-03T21:22:45.113Z,1.27
2022-08-03T21:25:33.778Z,1.35
2022-08-03T21:28:27.216Z,1.48
2022-08-03T21:31:24.543Z,1.80
2022-08-03T21:34:13.047Z,1.02
2022-08-03T21:36:59.860Z,1.50
2022-08-03T21:39:50.550Z,1.50
2022-08-03T21:42:40.253Z,1.10
2022-08-03T21:45:27.245Z,1.15
2022-08-03T21:48:15.591Z,1.10
2022-08-03T21:51:03.581Z,1.02
2022-08-03T21:54:03.517Z,0.70
2022-08-03T21:57:01.612Z,1.00
2022-08-03T21:59:56.919Z,1.20
2022-08-03T22:02:57.380Z,1.65
2022-08-03T22:05:45.046Z,1.45
2022-08-03T22:08:34.476Z,1.40
2022-08-03T22:11:21.790Z,1.30
2022-08-03T22:14:10.923Z,1.30
2022-08-03T22:16:57.811Z,1.38
2022-08-03T22:19:51.368Z,1.20
2022-08-03T22:22:39.767Z,2.03
2022-08-03T22:25:33.441Z,1.25
2022-08-03T22:28:22.003Z,1.73
2022-08-03T22:31:30.673Z,0.98
2022-08-03T22:34:24.436Z,1.30
2022-08-03T22:37:16.330Z,1.27
2022-08-03T22:40:09.115Z,1.30
2022-08-03T22:42:56.706Z,1.70
2022-08-03T22:46:09.363Z,1.60
2022-08-03T22:48:54.062Z,1.25
2022-08-03T22:51:41.350Z,1.42
2022-08-03T22:54:32.447Z,1.50
2022-08-03T22:57:21.674Z,1.60
2022-08-03T23:00:12.080Z,2.13
2022-08-03T23:03:02.390Z,1.17
2022-08-03T23:06:00.304Z,1.60
2022-08-03T23:08:50.396Z,1.65
2022-08-03T23:11:45.570Z,1.75
2022-08-03T23:14:38.457Z,1.90
2022-08-03T23:17:26.607Z,1.45
2022-08-03T23:20:14.543Z,1.50
2022-08-03T23:23:01.860Z,1.30
2022-08-03T23:25:50.176Z,2.05
2022-08-03T23:28:38.536Z,1.35
2022-08-03T23:31:27.642Z,1.40
2022-08-03T23:34:33.523Z,1.50
2022-08-03T23:37:20.817Z,1.42
2022-08-03T23:40:09.590Z,1.55
2022-08-03T23:43:00.210Z,2.03
2022-08-03T23:45:48.355Z,1.52
2022-08-03T23:48:35.300Z,1.30
2022-08-03T23:51:37.405Z,1.50
2022-08-03T23:54:48.083Z,1.58
2022-08-03T23:57:53.798Z,1.55
